createdAt,value
2022-12-22T00:00:11.192Z,2.08
2022-12-22T00:02:56.655Z,1.90
2022-12-22T00:05:43.209Z,1.80
2022-12-22T00:08:29.203Z,1.83
2022-12-22T00:11:15.420Z,2.00
2022-12-22T00:14:02.620Z,1.92
2022-12-22T00:16:53.871Z,1.83
2022-12-22T00:19:39.240Z,1.63
2022-12-22T00:22:38.324Z,2.00
2022-12-22T00:25:24.347Z,1.90
2022-12-22T00:28:09.741Z,2.00
2022-12-22T00:30:55.825Z,1.70
2022-12-22T00:33:41.558Z,1.88
2022-12-22T00:36:29.253Z,2.23
2022-12-22T00:39:15.088Z,2.47
2022-12-22T00:42:00.791Z,2.10
2022-12-22T00:44:46.322Z,1.90
2022-12-22T00:47:33.584Z,2.15
2022-12-22T00:50:19.512Z,2.43
2022-12-22T00:53:05.250Z,2.25
2022-12-22T00:55:51.433Z,1.95
2022-12-22T00:58:38.678Z,1.80
2022-12-22T01:01:24.203Z,2.10
2022-12-22T01:04:09.664Z,2.13
2022-12-22T01:06:55.794Z,1.90
2022-12-22T01:09:41.832Z,2.00
2022-12-22T01:12:35.388Z,1.80
2022-12-22T01:15:21.291Z,2.17
2022-12-22T01:18:07.169Z,1.90
2022-12-22T01:20:52.728Z,1.90
2022-12-22T01:23:38.320Z,1.95
2022-12-22T01:26:29.577Z,2.08
2022-12-22T01:29:15.320Z,1.83
2022-12-22T01:32:01.137Z,2.40
2022-12-22T01:34:46.751Z,1.90
2022-12-22T01:37:32.913Z,1.58
2022-12-22T01:40:18.636Z,1.60
2022-12-22T01:43:04.097Z,1.48
2022-12-22T01:45:51.849Z,1.33
2022-12-22T01:48:48.517Z,1.20
2022-12-22T01:51:38.943Z,1.55
2022-12-22T01:54:25.655Z,1.33
2022-12-22T01:57:11.468Z,1.60
2022-12-22T01:59:57.380Z,1.30
2022-12-22T02:02:45.462Z,1.05
2022-12-22T02:05:33.248Z,1.35
2022-12-22T02:08:37.802Z,0.80
2022-12-22T02:11:49.803Z,0.98
2022-12-22T02:14:46.760Z,1.10
2022-12-22T02:17:50.285Z,1.02
2022-12-22T02:20:58.306Z,1.00
2022-12-22T02:24:09.173Z,0.65
2022-12-22T02:27:09.199Z,1.30
2022-12-22T02:29:59.149Z,0.43
2022-12-22T02:32:45.219Z,0.93
2022-12-22T02:35:32.978Z,0.77
2022-12-22T02:38:34.651Z,0.77
2022-12-22T02:41:40.692Z,0.68
2022-12-22T02:45:11.043Z,0.90
2022-12-22T02:48:09.636Z,1.10
2022-12-22T02:51:01.599Z,1.02
2022-12-22T02:53:47.188Z,1.35
2022-12-22T02:56:32.755Z,1.30
2022-12-22T02:59:18.250Z,1.13
2022-12-22T03:02:04.583Z,1.00
2022-12-22T03:04:50.229Z,1.30
2022-12-22T03:07:35.856Z,0.77
2022-12-22T03:10:21.903Z,0.73
2022-12-22T03:13:07.389Z,0.40
2022-12-22T03:15:52.892Z,0.50
2022-12-22T03:18:38.395Z,0.60
2022-12-22T03:21:24.098Z,0.70
2022-12-22T03:24:09.584Z,0.73
2022-12-22T03:26:36.715Z,0.50
2022-12-22T03:29:03.746Z,0.52
2022-12-22T03:31:30.817Z,0.65
2022-12-22T03:33:57.947Z,0.50
2022-12-22T03:36:25.010Z,0.80
2022-12-22T03:38:52.083Z,0.40
2022-12-22T03:41:37.957Z,0.60
2022-12-22T03:44:23.648Z,0.50
2022-12-22T03:46:50.768Z,0.70
2022-12-22T03:49:19.376Z,0.52
2022-12-22T03:51:48.770Z,0.80
2022-12-22T03:54:18.267Z,0.77
2022-12-22T03:56:45.682Z,0.40
2022-12-22T03:59:13.469Z,0.50
2022-12-22T04:01:43.123Z,0.52
2022-12-22T04:04:11.079Z,1.10
2022-12-22T04:06:38.160Z,0.80
2022-12-22T04:09:05.315Z,0.60
2022-12-22T04:11:50.962Z,0.60
2022-12-22T04:14:17.993Z,0.52
2022-12-22T04:16:45.105Z,0.60
2022-12-22T04:19:12.323Z,0.75
2022-12-22T04:21:39.376Z,0.75
2022-12-22T04:24:06.685Z,0.70
2022-12-22T04:26:34.262Z,1.00
2022-12-22T04:29:01.331Z,0.60
2022-12-22T04:31:28.441Z,0.70
2022-12-22T04:33:55.530Z,0.65
2022-12-22T04:36:22.555Z,0.77
2022-12-22T04:38:49.586Z,0.90
2022-12-22T04:41:17.176Z,0.60
2022-12-22T04:43:44.255Z,0.65
2022-12-22T04:46:11.344Z,0.45
2022-12-22T04:48:38.435Z,0.63
2022-12-22T04:51:05.903Z,0.40
2022-12-22T04:53:33.017Z,0.93
2022-12-22T04:56:03.737Z,0.50
2022-12-22T04:58:31.317Z,0.55
2022-12-22T05:01:11.479Z,0.70
2022-12-22T05:03:38.653Z,0.60
2022-12-22T05:06:06.087Z,0.70
2022-12-22T05:08:33.124Z,0.63
2022-12-22T05:11:00.490Z,0.40
2022-12-22T05:13:27.525Z,0.30
2022-12-22T05:15:54.828Z,0.60
2022-12-22T05:18:21.907Z,0.43
2022-12-22T05:20:48.959Z,0.60
2022-12-22T05:23:16.071Z,0.60
2022-12-22T05:25:43.147Z,0.60
2022-12-22T05:28:10.339Z,0.70
2022-12-22T05:30:37.529Z,0.70
2022-12-22T05:33:04.599Z,0.40
2022-12-22T05:35:31.636Z,1.02
2022-12-22T05:37:58.725Z,0.77
2022-12-22T05:40:25.761Z,0.47
2022-12-22T05:42:52.997Z,0.40
2022-12-22T05:45:21.197Z,0.90
2022-12-22T05:47:50.209Z,0.50
2022-12-22T05:50:20.684Z,0.35
2022-12-22T05:52:47.826Z,0.50
2022-12-22T05:55:15.625Z,0.50
2022-12-22T05:57:43.524Z,0.60
2022-12-22T06:00:14.125Z,0.50
2022-12-22T06:02:42.410Z,0.50
2022-12-22T06:05:10.793Z,0.43
2022-12-22T06:07:37.910Z,0.60
2022-12-22T06:10:11.691Z,0.70
2022-12-22T06:12:40.680Z,0.60
2022-12-22T06:15:09.425Z,0.60
2022-12-22T06:17:42.380Z,0.50
2022-12-22T06:20:12.326Z,0.63
2022-12-22T06:22:39.442Z,0.57
2022-12-22T06:25:06.641Z,0.50
2022-12-22T06:27:33.681Z,0.70
2022-12-22T06:30:00.797Z,1.10
2022-12-22T06:32:27.860Z,1.20
2022-12-22T06:34:54.947Z,0.70
2022-12-22T06:37:21.969Z,0.40
2022-12-22T06:39:49.083Z,0.47
2022-12-22T06:42:34.503Z,0.30
2022-12-22T06:45:01.585Z,0.40
2022-12-22T06:47:28.645Z,0.40
2022-12-22T06:49:55.672Z,0.50
2022-12-22T06:52:22.726Z,0.68
2022-12-22T06:54:49.749Z,0.50
2022-12-22T06:57:16.782Z,0.50
2022-12-22T06:59:43.863Z,0.50
2022-12-22T07:02:13.971Z,0.50
2022-12-22T07:04:41.106Z,0.60
2022-12-22T07:07:08.232Z,0.50
2022-12-22T07:09:35.268Z,0.30
2022-12-22T07:12:02.394Z,0.30
2022-12-22T07:14:29.543Z,0.50
2022-12-22T07:16:56.605Z,0.35
2022-12-22T07:19:23.627Z,0.40
2022-12-22T07:21:51.412Z,0.30
2022-12-22T07:24:23.702Z,0.52
2022-12-22T07:26:50.854Z,0.43
2022-12-22T07:29:17.891Z,0.50
2022-12-22T07:31:44.961Z,0.30
2022-12-22T07:34:12.060Z,0.53
2022-12-22T07:36:39.147Z,0.88
2022-12-22T07:39:06.463Z,0.43
2022-12-22T07:41:52.351Z,0.40
2022-12-22T07:44:19.509Z,0.60
2022-12-22T07:46:46.677Z,0.50
2022-12-22T07:49:32.414Z,0.60
2022-12-22T07:51:59.788Z,0.50
2022-12-22T07:54:27.834Z,0.40
2022-12-22T07:56:54.879Z,0.20
2022-12-22T07:59:22.118Z,0.50
2022-12-22T08:01:49.454Z,0.50
2022-12-22T08:04:16.968Z,0.95
2022-12-22T08:06:44.025Z,0.63
2022-12-22T08:09:15.206Z,0.57
2022-12-22T08:11:42.257Z,0.50
2022-12-22T08:14:09.299Z,0.60
2022-12-22T08:16:36.442Z,0.40
2022-12-22T08:19:03.524Z,0.50
2022-12-22T08:21:30.715Z,0.30
2022-12-22T08:23:57.802Z,0.50
2022-12-22T08:26:32.645Z,0.70
2022-12-22T08:29:16.915Z,0.60
2022-12-22T08:31:44.371Z,0.40
2022-12-22T08:34:14.408Z,0.43
2022-12-22T08:36:45.710Z,0.40
2022-12-22T08:39:13.299Z,0.47
2022-12-22T08:41:52.673Z,0.50
2022-12-22T08:44:28.010Z,0.47
2022-12-22T08:46:57.708Z,0.47
2022-12-22T08:49:25.938Z,0.57
2022-12-22T08:51:53.391Z,0.40
2022-12-22T08:54:20.927Z,0.20
2022-12-22T08:56:48.130Z,0.38
2022-12-22T08:59:15.487Z,0.70
2022-12-22T09:01:44.709Z,0.70
2022-12-22T09:04:13.121Z,0.50
2022-12-22T09:06:41.458Z,0.57
2022-12-22T09:09:10.320Z,0.43
2022-12-22T09:11:37.827Z,0.50
2022-12-22T09:14:05.364Z,1.00
2022-12-22T09:16:33.368Z,0.50
2022-12-22T09:19:01.287Z,0.50
2022-12-22T09:21:29.053Z,0.40
2022-12-22T09:23:56.819Z,0.38
2022-12-22T09:26:25.986Z,0.30
2022-12-22T09:28:53.769Z,0.50
2022-12-22T09:31:22.176Z,0.75
2022-12-22T09:33:49.456Z,0.30
2022-12-22T09:36:19.579Z,0.30
2022-12-22T09:38:47.247Z,0.20
2022-12-22T09:41:51.767Z,0.30
2022-12-22T09:44:40.867Z,0.30
2022-12-22T09:47:23.101Z,0.40
2022-12-22T09:49:52.303Z,0.30
2022-12-22T09:52:45.064Z,0.40
2022-12-22T09:55:24.130Z,0.50
2022-12-22T09:57:51.899Z,0.40
2022-12-22T10:00:21.516Z,0.32
2022-12-22T10:03:13.372Z,0.40
2022-12-22T10:05:51.345Z,0.40
2022-12-22T10:08:28.567Z,0.28
2022-12-22T10:10:56.396Z,0.22
2022-12-22T10:13:23.463Z,0.20
2022-12-22T10:15:52.004Z,0.40
2022-12-22T10:18:25.124Z,0.30
2022-12-22T10:21:11.727Z,0.40
2022-12-22T10:23:45.424Z,0.20
2022-12-22T10:26:31.878Z,0.40
2022-12-22T10:29:29.136Z,0.30
2022-12-22T10:32:05.098Z,0.20
2022-12-22T10:34:32.498Z,0.30
2022-12-22T10:37:01.988Z,0.30
2022-12-22T10:39:32.860Z,0.30
2022-12-22T10:42:10.032Z,0.30
2022-12-22T10:44:38.453Z,0.20
2022-12-22T10:47:18.249Z,0.20
2022-12-22T10:49:47.711Z,0.30
2022-12-22T10:52:27.394Z,0.28
2022-12-22T10:55:21.587Z,0.20
2022-12-22T10:57:49.914Z,0.30
2022-12-22T11:00:26.304Z,0.30
2022-12-22T11:02:58.514Z,0.30
2022-12-22T11:05:25.868Z,0.20
2022-12-22T11:07:53.779Z,0.30
2022-12-22T11:10:33.033Z,0.30
2022-12-22T11:13:16.843Z,0.30
2022-12-22T11:15:55.981Z,0.20
2022-12-22T11:18:38.129Z,0.40
2022-12-22T11:21:35.910Z,0.30
2022-12-22T11:24:28.867Z,0.30
2022-12-22T11:27:20.681Z,0.20
2022-12-22T11:30:02.792Z,0.20
2022-12-22T11:33:03.740Z,0.30
2022-12-22T11:36:09.581Z,0.30
2022-12-22T11:38:48.292Z,0.20
2022-12-22T11:41:27.344Z,0.30
2022-12-22T11:44:08.009Z,0.20
2022-12-22T11:46:44.596Z,0.55
2022-12-22T11:49:31.114Z,0.93
2022-12-22T11:52:48.499Z,0.37
2022-12-22T11:55:43.248Z,0.40
2022-12-22T11:58:19.376Z,0.22
2022-12-22T12:01:15.394Z,0.20
2022-12-22T12:04:14.689Z,0.30
2022-12-22T12:07:00.214Z,0.50
2022-12-22T12:09:36.904Z,0.20
2022-12-22T12:12:09.876Z,0.20
2022-12-22T12:14:51.363Z,0.28
2022-12-22T12:17:51.279Z,0.20
2022-12-22T12:20:28.502Z,0.40
2022-12-22T12:23:22.786Z,0.20
2022-12-22T12:26:02.776Z,0.20
2022-12-22T12:29:01.770Z,0.30
2022-12-22T12:31:32.823Z,0.28
2022-12-22T12:34:03.639Z,0.30
2022-12-22T12:36:45.400Z,0.52
2022-12-22T12:39:24.062Z,0.55
2022-12-22T12:41:57.091Z,0.65
2022-12-22T12:44:30.358Z,0.28
2022-12-22T12:47:23.527Z,0.50
2022-12-22T12:49:51.923Z,0.20
2022-12-22T12:52:38.830Z,0.30
2022-12-22T12:55:32.643Z,0.70
2022-12-22T12:58:02.410Z,0.20
2022-12-22T13:00:35.385Z,0.20
2022-12-22T13:03:20.042Z,0.40
2022-12-22T13:06:01.239Z,0.32
2022-12-22T13:08:30.134Z,0.40
2022-12-22T13:10:57.034Z,0.50
2022-12-22T13:13:27.016Z,0.60
2022-12-22T13:16:00.206Z,0.38
2022-12-22T13:18:28.438Z,0.30
2022-12-22T13:21:26.120Z,0.40
2022-12-22T13:24:42.486Z,0.60
2022-12-22T13:27:14.034Z,0.40
2022-12-22T13:29:44.008Z,0.40
2022-12-22T13:32:33.624Z,0.30
2022-12-22T13:37:59.411Z,0.30
2022-12-22T13:40:31.365Z,0.40
2022-12-22T13:43:10.042Z,0.30
2022-12-22T13:45:42.572Z,0.30
2022-12-22T13:48:16.231Z,0.40
2022-12-22T13:50:49.535Z,0.30
2022-12-22T13:54:07.003Z,0.20
2022-12-22T13:56:41.198Z,0.20
2022-12-22T13:59:28.971Z,0.40
2022-12-22T14:02:19.438Z,0.70
2022-12-22T14:05:10.675Z,0.40
2022-12-22T14:07:37.796Z,0.20
2022-12-22T14:10:05.633Z,0.30
2022-12-22T14:12:39.929Z,0.20
2022-12-22T14:15:14.907Z,0.30
2022-12-22T14:17:46.242Z,0.40
2022-12-22T14:20:27.390Z,0.30
2022-12-22T14:23:02.175Z,0.40
2022-12-22T14:25:32.130Z,0.22
2022-12-22T14:27:59.583Z,0.20
2022-12-22T14:30:33.356Z,0.30
2022-12-22T14:33:26.696Z,0.20
2022-12-22T14:36:23.956Z,0.20
2022-12-22T14:38:55.947Z,0.20
2022-12-22T14:41:44.293Z,0.30
2022-12-22T14:44:16.966Z,0.20
2022-12-22T14:46:46.083Z,0.40
2022-12-22T14:49:18.151Z,0.20
2022-12-22T14:52:01.023Z,0.40
2022-12-22T14:54:28.322Z,0.40
2022-12-22T14:57:03.481Z,0.28
2022-12-22T14:59:31.273Z,0.27
2022-12-22T15:02:00.940Z,0.20
2022-12-22T15:04:28.938Z,0.20
2022-12-22T15:08:03.051Z,0.20
2022-12-22T15:10:15.700Z,0.38
2022-12-22T15:12:43.882Z,0.23
2022-12-22T15:15:19.450Z,0.28
2022-12-22T15:17:48.463Z,0.40
2022-12-22T15:20:18.589Z,0.30
2022-12-22T15:22:45.713Z,0.30
2022-12-22T15:25:19.315Z,0.30
2022-12-22T15:27:46.684Z,0.30
2022-12-22T15:30:19.924Z,0.30
2022-12-22T15:32:47.317Z,0.40
2022-12-22T15:35:31.969Z,0.30
2022-12-22T15:37:59.698Z,0.40
2022-12-22T15:40:27.897Z,0.30
2022-12-22T15:42:55.095Z,0.45
2022-12-22T15:45:22.516Z,0.40
2022-12-22T15:47:52.380Z,0.47
2022-12-22T15:50:30.115Z,0.60
2022-12-22T15:52:59.728Z,0.65
2022-12-22T15:55:27.178Z,0.95
2022-12-22T15:57:57.352Z,1.02
2022-12-22T16:00:24.877Z,0.77
2022-12-22T16:02:52.105Z,1.20
2022-12-22T16:05:19.238Z,1.20
2022-12-22T16:07:46.400Z,1.30
2022-12-22T16:10:21.940Z,1.23
2022-12-22T16:12:54.123Z,1.50
2022-12-22T16:15:22.065Z,1.30
2022-12-22T16:17:51.685Z,1.30
2022-12-22T16:20:19.267Z,1.40
2022-12-22T16:22:47.244Z,1.85
2022-12-22T16:25:16.908Z,1.50
2022-12-22T16:27:44.631Z,1.47
2022-12-22T16:30:20.536Z,1.83
2022-12-22T16:32:47.704Z,1.58
2022-12-22T16:35:17.817Z,2.10
2022-12-22T16:37:45.512Z,1.80
2022-12-22T16:40:13.117Z,2.10
2022-12-22T16:45:28.920Z,1.98
2022-12-22T16:47:59.994Z,1.80
2022-12-22T16:50:32.875Z,1.98
2022-12-22T16:53:00.968Z,1.90
2022-12-22T16:55:28.574Z,2.03
2022-12-22T16:57:55.760Z,2.00
2022-12-22T17:00:29.812Z,1.98
2022-12-22T17:03:03.065Z,1.80
2022-12-22T17:05:44.425Z,1.90
2022-12-22T17:08:22.568Z,2.10
2022-12-22T17:10:50.226Z,2.13
2022-12-22T17:13:17.755Z,2.20
2022-12-22T17:15:44.835Z,2.08
2022-12-22T17:18:16.183Z,2.10
2022-12-22T17:20:44.403Z,2.00
2022-12-22T17:23:25.017Z,2.15
2022-12-22T17:25:52.092Z,1.90
2022-12-22T17:28:19.147Z,2.25
2022-12-22T17:30:46.243Z,2.30
2022-12-22T17:33:17.226Z,2.33
2022-12-22T17:35:45.845Z,2.22
2022-12-22T17:38:14.351Z,2.47
2022-12-22T17:40:41.525Z,2.65
2022-12-22T17:43:19.235Z,2.57
2022-12-22T17:45:47.189Z,2.15
2022-12-22T17:48:15.586Z,2.50
2022-12-22T17:50:44.248Z,2.45
2022-12-22T17:53:20.962Z,2.55
2022-12-22T17:58:36.183Z,2.35
2022-12-22T18:01:03.232Z,2.80
2022-12-22T18:03:30.433Z,2.78
2022-12-22T18:05:59.551Z,2.90
2022-12-22T18:08:26.655Z,5.23
2022-12-22T18:10:53.690Z,6.55
2022-12-22T18:13:26.184Z,2.90
2022-12-22T18:15:54.946Z,2.40
2022-12-22T18:18:22.056Z,2.58
2022-12-22T18:21:07.592Z,3.10
2022-12-22T18:23:36.874Z,2.80
2022-12-22T18:26:10.572Z,2.40
2022-12-22T18:28:37.781Z,2.55
2022-12-22T18:31:04.983Z,2.50
2022-12-22T18:33:32.119Z,2.33
2022-12-22T18:35:59.527Z,2.38
2022-12-22T18:38:29.507Z,2.55
2022-12-22T18:40:56.817Z,2.33
2022-12-22T18:43:24.291Z,2.78
2022-12-22T18:45:51.479Z,3.10
2022-12-22T18:48:18.530Z,3.00
2022-12-22T18:50:45.666Z,2.80
2022-12-22T18:53:24.480Z,2.50
2022-12-22T18:55:51.818Z,3.30
2022-12-22T18:58:18.936Z,2.57
2022-12-22T19:00:46.446Z,2.83
2022-12-22T19:03:19.737Z,3.35
2022-12-22T19:05:49.865Z,3.13
2022-12-22T19:08:19.907Z,2.80
2022-12-22T19:10:52.935Z,3.10
2022-12-22T19:13:44.312Z,2.65
2022-12-22T19:16:13.192Z,2.53
2022-12-22T19:18:40.292Z,2.72
2022-12-22T19:21:15.094Z,3.13
2022-12-22T19:23:42.177Z,2.97
2022-12-22T19:26:22.709Z,2.95
2022-12-22T19:28:57.665Z,2.67
2022-12-22T19:31:26.766Z,2.65
2022-12-22T19:33:56.241Z,3.03
2022-12-22T19:36:25.814Z,3.30
2022-12-22T19:39:02.621Z,4.30
2022-12-22T19:41:38.856Z,3.22
2022-12-22T19:44:06.507Z,3.40
2022-12-22T19:46:34.269Z,2.85
2022-12-22T19:49:01.525Z,3.20
2022-12-22T19:51:29.923Z,2.42
2022-12-22T19:53:56.985Z,2.33
2022-12-22T19:56:27.027Z,3.15
2022-12-22T19:58:54.873Z,2.42
2022-12-22T20:01:21.955Z,2.73
2022-12-22T20:03:49.151Z,2.45
2022-12-22T20:06:17.598Z,2.53
2022-12-22T20:08:44.808Z,4.40
2022-12-22T20:11:13.705Z,2.20
2022-12-22T20:13:40.959Z,2.20
2022-12-22T20:16:12.334Z,1.88
2022-12-22T20:18:39.355Z,2.40
2022-12-22T20:21:11.479Z,2.38
2022-12-22T20:23:39.172Z,2.00
2022-12-22T20:26:08.910Z,2.00
2022-12-22T20:28:38.681Z,1.98
2022-12-22T20:31:07.598Z,1.73
2022-12-22T20:33:34.984Z,2.22
2022-12-22T20:36:03.051Z,2.40
2022-12-22T20:38:38.495Z,2.30
2022-12-22T20:41:08.145Z,3.63
2022-12-22T20:43:36.350Z,2.38
2022-12-22T20:46:24.727Z,2.25
2022-12-22T20:48:57.623Z,2.10
2022-12-22T20:51:27.382Z,2.30
2022-12-22T20:53:55.753Z,2.47
2022-12-22T20:56:34.491Z,2.92
2022-12-22T20:59:11.115Z,2.70
2022-12-22T21:01:38.407Z,2.33
2022-12-22T21:04:05.630Z,2.70
2022-12-22T21:06:38.102Z,2.75
2022-12-22T21:09:05.752Z,2.78
2022-12-22T21:11:32.817Z,2.90
2022-12-22T21:13:59.881Z,3.50
2022-12-22T21:16:28.978Z,2.73
2022-12-22T21:18:56.233Z,2.92
2022-12-22T21:21:23.635Z,2.72
2022-12-22T21:23:50.664Z,2.70
2022-12-22T21:26:30.191Z,2.83
2022-12-22T21:28:57.989Z,2.37
2022-12-22T21:31:25.204Z,3.10
2022-12-22T21:33:52.300Z,2.65
2022-12-22T21:36:24.962Z,2.90
2022-12-22T21:38:54.345Z,4.72
2022-12-22T21:41:47.114Z,2.87
2022-12-22T21:44:14.173Z,2.33
2022-12-22T21:46:45.518Z,2.80
2022-12-22T21:49:23.835Z,2.20
2022-12-22T21:51:52.320Z,2.72
2022-12-22T21:54:20.518Z,3.47
2022-12-22T21:56:48.632Z,2.70
2022-12-22T21:59:16.607Z,2.65
2022-12-22T22:01:44.815Z,2.40
2022-12-22T22:04:11.996Z,2.33
2022-12-22T22:06:39.131Z,2.33
2022-12-22T22:09:07.011Z,2.65
2022-12-22T22:11:54.716Z,2.20
2022-12-22T22:14:22.087Z,2.53
2022-12-22T22:16:49.431Z,2.75
2022-12-22T22:19:17.902Z,2.40
2022-12-22T22:21:45.708Z,2.17
2022-12-22T22:24:13.147Z,2.13
2022-12-22T22:26:40.162Z,2.03
2022-12-22T22:29:07.361Z,2.40
2022-12-22T22:31:34.599Z,1.57
2022-12-22T22:34:01.662Z,2.15
2022-12-22T22:36:28.715Z,1.88
2022-12-22T22:38:55.817Z,1.75
2022-12-22T22:41:22.862Z,2.28
2022-12-22T22:43:53.939Z,1.80
2022-12-22T22:46:21.065Z,2.15
2022-12-22T22:48:48.169Z,2.10
2022-12-22T22:51:15.222Z,1.77
2022-12-22T22:53:42.378Z,1.50
2022-12-22T22:56:09.433Z,1.80
2022-12-22T22:58:36.493Z,1.60
2022-12-22T23:01:07.244Z,1.77
2022-12-22T23:03:34.469Z,1.60
2022-12-22T23:06:03.109Z,1.80
2022-12-22T23:08:30.800Z,1.40
2022-12-22T23:10:57.915Z,1.52
2022-12-22T23:13:25.089Z,1.80
2022-12-22T23:15:56.349Z,1.33
2022-12-22T23:18:23.529Z,1.70
2022-12-22T23:20:50.846Z,1.33
2022-12-22T23:23:18.770Z,1.58
2022-12-22T23:25:48.503Z,1.50
2022-12-22T23:28:15.973Z,1.08
2022-12-22T23:30:44.292Z,1.30
2022-12-22T23:33:11.598Z,1.23
2022-12-22T23:35:39.761Z,0.90
2022-12-22T23:38:09.901Z,1.00
2022-12-22T23:40:54.398Z,1.00
2022-12-22T23:43:22.267Z,1.02
2022-12-22T23:45:49.392Z,0.83
2022-12-22T23:48:16.571Z,0.60
2022-12-22T23:50:47.446Z,0.80
2022-12-22T23:53:15.152Z,1.15
2022-12-22T23:55:49.085Z,0.60
2022-12-22T23:58:16.597Z,0.57
